Galesville, WI (54630)

10:56 PM CST on December 21, 2014 (GMT -0600)
Holmen | Change Station
CLOSE
Current Station
Personal Weather Station
Location: Holmen, WI
Elevation: 705 ft
Nearby Weather Stations

Elev 705 ft 43.96 °N, 91.26 °W | Updated 9 seconds ago

Rain
Rain
37.3 °F
Feels Like 34 °F
N
4.1
Wind Variable Wind from SE
Gusts 4.1 mph

Today
High -- | Low -- °F
--% Chance of Precip.
Yesterday
High -- | Low -- °F
Precip. -- in
7:37 AM 4:29 PM
New Moon, 0% visible
Pressure 29.88 in
Visibility 7.0 miles
Clouds Overcast 1200 ft
Windchill 34 °F
Dew Point 34 °F
Humidity 89%
Rainfall 0.00 in
Snow Depth Not available.
UV 0 out of 12
Pollen .10 out of 12
Air Quality Not available.
Flu Activity Not available.
METAR KLSE 220453Z AUTO 18012KT 7SM OVC012 03/01 A2985 RMK AO2 SLP116 T00330011

More Conditions Fewer Conditions

Pressure 29.88 in
Visibility 7.0 miles
Clouds Overcast 1200 ft
Windchill 34 °F
Dew Point 34 °F
Humidity 89%
Rainfall 0.00 in
Snow Depth Not available.
UV 0 out of 12
Pollen .10 out of 12
Air Quality Not available.
Flu Activity Not available.
METAR KLSE 220453Z AUTO 18012KT 7SM OVC012 03/01 A2985 RMK AO2 SLP116 T00330011

More Conditions Fewer Conditions

10-Day Weather Forecast

Almanac

Astronomy

Dec. 21, 2014 Rise Set
Actual Time
Civil Twilight
Nautical Twilight
Astronomical Twilight
Moon
Length of Visible Light
Length of Day
Tomorrow will be .
, % of the Moon is Illuminated

Today's Extremes

State Highs State Lows

Community

WunderPhotos

Upload Photos

1,779,540 photos uploaded!

WunderBlogs® & News

Nearby

Air Quality

  Air Quality AQ Index Pollutant
Not available.

Snow Depth

Station Depth Elevation

Earthquake Activity

City Distance Mag. Time & Date
Minimum magnitude displayed is 2.5.

Coastal Water Temperatures

Place Temperature

Nearby Weather Stations